createdAt,value
2019-05-06T00:02:26.398Z,6.36
2019-05-06T00:04:58.678Z,6.36
2019-05-06T00:07:31.038Z,6.35
2019-05-06T00:10:05.952Z,6.32
2019-05-06T00:12:38.208Z,6.29
2019-05-06T00:15:09.457Z,6.24
2019-05-06T00:17:44.447Z,6.24
2019-05-06T00:20:15.988Z,6.24
2019-05-06T00:22:49.019Z,6.25
2019-05-06T00:25:28.698Z,6.27
2019-05-06T00:28:37.932Z,6.28
2019-05-06T00:31:16.510Z,6.20
2019-05-06T00:33:48.268Z,6.25
2019-05-06T00:36:21.118Z,6.25
2019-05-06T00:38:56.373Z,6.23
2019-05-06T00:41:36.341Z,6.20
2019-05-06T00:44:07.032Z,6.22
2019-05-06T00:46:38.276Z,6.23
2019-05-06T00:49:10.158Z,6.20
2019-05-06T00:51:41.397Z,6.20
2019-05-06T00:54:18.078Z,6.11
2019-05-06T00:56:50.227Z,6.07
2019-05-06T00:59:21.366Z,6.01
2019-05-06T01:01:54.052Z,5.95
2019-05-06T01:04:28.131Z,5.95
2019-05-06T01:07:00.489Z,5.92
2019-05-06T01:09:34.591Z,5.91
2019-05-06T01:12:08.308Z,5.86
2019-05-06T01:14:44.868Z,5.83
2019-05-06T01:17:17.518Z,5.80
2019-05-06T01:19:50.549Z,5.80
2019-05-06T01:22:24.653Z,5.76
2019-05-06T01:24:56.908Z,5.76
2019-05-06T01:27:29.038Z,5.70
2019-05-06T01:30:01.491Z,5.67
2019-05-06T01:32:34.573Z,5.66
2019-05-06T01:35:08.089Z,5.65
2019-05-06T01:37:44.012Z,5.63
2019-05-06T01:40:38.169Z,5.57
2019-05-06T01:43:18.889Z,5.55
2019-05-06T01:45:53.515Z,5.47
2019-05-06T01:48:44.301Z,5.49
2019-05-06T01:51:18.577Z,5.48
2019-05-06T01:53:54.422Z,5.45
2019-05-06T01:56:26.688Z,5.45
2019-05-06T01:58:59.338Z,5.40
2019-05-06T02:01:33.898Z,5.40
2019-05-06T02:04:05.451Z,5.34
2019-05-06T02:06:37.838Z,5.32
2019-05-06T02:09:16.779Z,5.32
2019-05-06T02:11:48.880Z,5.33
2019-05-06T02:14:21.059Z,5.34
2019-05-06T02:16:54.598Z,5.31
2019-05-06T02:19:26.810Z,5.28
2019-05-06T02:22:16.956Z,5.26
2019-05-06T02:24:58.898Z,5.25
2019-05-06T02:27:31.118Z,5.22
2019-05-06T02:30:19.378Z,5.20
2019-05-06T02:33:10.511Z,5.19
2019-05-06T02:36:06.627Z,5.24
2019-05-06T02:38:47.051Z,5.25
2019-05-06T02:41:13.405Z,5.22
2019-05-06T02:43:46.081Z,5.20
2019-05-06T02:46:18.539Z,5.22
2019-05-06T02:49:13.262Z,5.21
2019-05-06T02:51:45.279Z,5.18
2019-05-06T02:54:16.488Z,5.17
2019-05-06T02:56:48.759Z,5.13
2019-05-06T02:59:24.096Z,5.13
2019-05-06T03:01:56.232Z,5.16
2019-05-06T03:04:28.459Z,5.13
2019-05-06T03:06:59.657Z,5.10
2019-05-06T03:09:33.982Z,5.07
2019-05-06T03:12:05.722Z,5.08
2019-05-06T03:14:39.721Z,5.10
2019-05-06T03:17:14.064Z,5.05
2019-05-06T03:19:47.593Z,5.05
2019-05-06T03:22:44.860Z,5.05
2019-05-06T03:25:24.210Z,5.07
2019-05-06T03:27:56.625Z,5.06
2019-05-06T03:30:29.280Z,5.04
2019-05-06T03:33:30.952Z,5.05
2019-05-06T03:35:49.899Z,5.03
2019-05-06T03:38:09.532Z,4.99
2019-05-06T03:40:45.644Z,5.00
2019-05-06T03:43:18.880Z,4.98
2019-05-06T03:46:10.026Z,4.95
2019-05-06T03:48:44.647Z,4.93
2019-05-06T03:51:17.036Z,4.91
2019-05-06T03:53:49.838Z,4.93
2019-05-06T03:56:24.020Z,4.92
2019-05-06T03:58:58.492Z,4.96
2019-05-06T04:01:33.558Z,4.97
2019-05-06T04:04:05.278Z,5.04
2019-05-06T04:06:37.689Z,5.10
2019-05-06T04:09:13.042Z,5.14
2019-05-06T04:11:44.640Z,5.15
2019-05-06T04:14:18.640Z,5.21
2019-05-06T04:16:59.682Z,5.24
2019-05-06T04:19:39.781Z,5.26
2019-05-06T04:22:33.683Z,5.29
2019-05-06T04:25:23.401Z,5.32
2019-05-06T04:27:58.041Z,5.38
2019-05-06T04:30:33.202Z,5.43
2019-05-06T04:33:05.420Z,5.51
2019-05-06T04:35:37.991Z,5.53
2019-05-06T04:38:13.639Z,5.56
2019-05-06T04:40:44.833Z,5.62
2019-05-06T04:43:17.210Z,5.71
2019-05-06T04:45:49.758Z,5.77
2019-05-06T04:50:54.563Z,5.82
2019-05-06T04:53:27.338Z,5.86
2019-05-06T04:55:59.718Z,5.86
2019-05-06T04:58:33.517Z,5.86
2019-05-06T05:01:06.085Z,5.88
2019-05-06T05:03:38.787Z,5.88
2019-05-06T05:06:13.579Z,5.93
2019-05-06T05:08:47.229Z,6.00
2019-05-06T05:11:38.009Z,6.07
2019-05-06T05:14:32.807Z,6.15
2019-05-06T05:17:12.833Z,6.21
2019-05-06T05:19:45.029Z,6.29
2019-05-06T05:22:16.097Z,6.33
2019-05-06T05:24:48.139Z,6.32
2019-05-06T05:27:19.236Z,6.42
2019-05-06T05:29:52.182Z,6.46
2019-05-06T05:32:26.812Z,6.56
2019-05-06T05:34:58.389Z,6.68
2019-05-06T05:37:29.418Z,6.75
2019-05-06T05:40:03.084Z,6.86
2019-05-06T05:43:02.922Z,6.96
2019-05-06T05:45:34.818Z,7.11
2019-05-06T05:48:12.418Z,7.23
2019-05-06T05:50:44.350Z,7.35
2019-05-06T05:53:16.666Z,7.46
2019-05-06T05:55:47.677Z,7.62
2019-05-06T05:58:20.158Z,7.74
2019-05-06T06:00:52.478Z,7.89
2019-05-06T06:03:24.908Z,8.06
2019-05-06T06:05:57.169Z,8.08
2019-05-06T06:08:28.407Z,8.36
2019-05-06T06:11:05.568Z,8.50
2019-05-06T06:13:38.148Z,8.50
2019-05-06T06:16:38.058Z,8.55
2019-05-06T06:19:27.538Z,8.56
2019-05-06T06:22:03.106Z,8.58
2019-05-06T06:24:36.599Z,8.53
2019-05-06T06:27:08.782Z,8.49
2019-05-06T06:29:41.807Z,8.51
2019-05-06T06:32:19.391Z,8.59
2019-05-06T06:35:07.555Z,8.47
2019-05-06T06:37:47.778Z,8.45
2019-05-06T06:40:22.318Z,8.41
2019-05-06T06:42:59.099Z,8.36
2019-05-06T06:45:32.627Z,8.42
2019-05-06T06:48:04.943Z,8.58
2019-05-06T06:50:37.398Z,8.77
2019-05-06T06:53:09.779Z,8.98
2019-05-06T06:55:42.673Z,9.15
2019-05-06T06:58:34.930Z,9.27
2019-05-06T07:01:19.107Z,9.31
2019-05-06T07:04:10.249Z,9.36
2019-05-06T07:06:42.390Z,9.45
2019-05-06T07:09:14.449Z,9.36
2019-05-06T07:11:47.859Z,9.37
2019-05-06T07:14:22.485Z,9.43
2019-05-06T07:16:54.278Z,9.55
2019-05-06T07:19:32.756Z,9.88
2019-05-06T07:22:06.878Z,10.02
2019-05-06T07:24:38.949Z,10.20
2019-05-06T07:27:22.817Z,10.74
2019-05-06T07:29:56.468Z,11.35
2019-05-06T07:32:28.699Z,11.72
2019-05-06T07:35:02.281Z,11.57
2019-05-06T07:37:35.876Z,11.39
2019-05-06T07:40:09.509Z,11.61
2019-05-06T07:42:46.758Z,11.73
2019-05-06T07:45:38.179Z,11.73
2019-05-06T07:48:12.896Z,11.60
2019-05-06T07:50:45.343Z,12.03
2019-05-06T07:53:16.557Z,12.28
2019-05-06T07:55:48.588Z,12.13
2019-05-06T07:58:22.618Z,12.06
2019-05-06T08:00:54.338Z,11.89
2019-05-06T08:03:26.448Z,11.88
2019-05-06T08:05:58.840Z,11.87
2019-05-06T08:08:33.443Z,11.81
2019-05-06T08:11:05.199Z,12.04
2019-05-06T08:13:36.417Z,12.74
2019-05-06T08:16:09.078Z,12.99
2019-05-06T08:18:42.513Z,13.43
2019-05-06T08:21:22.338Z,14.09
2019-05-06T08:23:54.578Z,14.77
2019-05-06T08:26:26.757Z,14.82
2019-05-06T08:28:57.967Z,15.18
2019-05-06T08:31:29.943Z,14.76
2019-05-06T08:34:02.647Z,15.09
2019-05-06T08:37:12.216Z,15.35
2019-05-06T08:39:46.124Z,15.37
2019-05-06T08:42:18.818Z,15.64
2019-05-06T08:44:49.858Z,15.74
2019-05-06T08:47:22.332Z,14.95
2019-05-06T08:50:16.820Z,14.72
2019-05-06T08:53:16.601Z,14.22
2019-05-06T08:55:49.060Z,14.63
2019-05-06T08:58:24.948Z,15.12
2019-05-06T09:01:05.558Z,15.22
2019-05-06T09:03:37.710Z,15.45
2019-05-06T09:06:26.055Z,15.67
2019-05-06T09:08:45.309Z,15.64
2019-05-06T09:11:17.468Z,15.06
2019-05-06T09:13:52.155Z,15.34
2019-05-06T09:16:24.099Z,14.90
2019-05-06T09:18:55.327Z,15.68
2019-05-06T09:21:27.338Z,16.45
2019-05-06T09:24:02.105Z,16.96
2019-05-06T09:26:52.031Z,17.04
2019-05-06T09:30:02.905Z,17.00
2019-05-06T09:32:42.887Z,17.31
2019-05-06T09:35:15.628Z,17.23
2019-05-06T09:37:47.891Z,16.70
2019-05-06T09:40:22.628Z,16.46
2019-05-06T09:42:54.128Z,16.63
2019-05-06T09:45:25.497Z,16.40
2019-05-06T09:48:14.101Z,16.46
2019-05-06T09:50:47.752Z,17.02
2019-05-06T09:53:25.412Z,17.42
2019-05-06T09:56:23.098Z,17.81
2019-05-06T09:58:55.448Z,17.99
2019-05-06T10:01:26.823Z,18.65
2019-05-06T10:04:03.292Z,18.38
2019-05-06T10:06:34.849Z,18.14
2019-05-06T10:09:09.039Z,18.33
2019-05-06T10:11:42.342Z,18.38
2019-05-06T10:14:14.878Z,18.11
2019-05-06T10:16:47.348Z,18.42
2019-05-06T10:19:22.389Z,18.90
2019-05-06T10:21:54.069Z,18.79
2019-05-06T10:24:25.145Z,18.62
2019-05-06T10:26:59.058Z,17.89
2019-05-06T10:29:45.118Z,17.79
2019-05-06T10:32:29.318Z,17.70
2019-05-06T10:35:02.786Z,17.11
2019-05-06T10:38:00.000Z,17.03
2019-05-06T10:40:44.114Z,17.12
2019-05-06T10:43:22.057Z,17.15
2019-05-06T10:45:54.160Z,17.53
2019-05-06T10:48:27.179Z,17.44
2019-05-06T10:51:05.909Z,17.31
2019-05-06T10:53:38.149Z,17.49
2019-05-06T10:56:28.153Z,18.10
2019-05-06T10:59:02.502Z,18.25
2019-05-06T11:01:38.058Z,17.99
2019-05-06T11:04:10.118Z,17.82
2019-05-06T11:06:43.036Z,18.23
2019-05-06T11:09:15.659Z,17.74
2019-05-06T11:11:47.642Z,17.61
2019-05-06T11:17:05.248Z,17.86
2019-05-06T11:19:37.597Z,17.49
2019-05-06T11:22:08.620Z,17.29
2019-05-06T11:24:42.151Z,16.77
2019-05-06T11:27:27.473Z,16.30
2019-05-06T11:29:49.939Z,16.13
2019-05-06T11:32:50.237Z,15.55
2019-05-06T11:35:32.487Z,15.78
2019-05-06T11:38:12.034Z,15.71
2019-05-06T11:40:44.138Z,15.80
2019-05-06T11:43:16.469Z,15.97
2019-05-06T11:45:48.719Z,16.19
2019-05-06T11:48:22.289Z,15.85
2019-05-06T11:50:57.968Z,16.11
2019-05-06T11:53:30.038Z,16.01
2019-05-06T11:56:02.163Z,16.02
2019-05-06T11:58:44.838Z,16.13
2019-05-06T12:01:28.948Z,16.47
2019-05-06T12:04:02.681Z,16.84
2019-05-06T12:06:38.139Z,16.52
2019-05-06T12:09:16.340Z,16.41
2019-05-06T12:11:44.818Z,16.12
2019-05-06T12:14:15.954Z,15.94
2019-05-06T12:16:47.921Z,16.02
2019-05-06T12:19:19.177Z,16.04
2019-05-06T12:21:51.151Z,15.95
2019-05-06T12:24:22.884Z,15.91
2019-05-06T12:26:54.877Z,16.10
2019-05-06T12:29:26.979Z,15.70
2019-05-06T12:32:22.575Z,15.73
2019-05-06T12:34:56.279Z,15.45
2019-05-06T12:37:27.819Z,15.61
2019-05-06T12:40:00.458Z,16.08
2019-05-06T12:42:35.459Z,16.45
2019-05-06T12:45:26.861Z,16.45
2019-05-06T12:48:07.967Z,16.62
2019-05-06T12:50:43.088Z,16.96
2019-05-06T12:53:14.960Z,16.60
2019-05-06T12:55:47.869Z,16.60
2019-05-06T12:58:23.273Z,16.45
2019-05-06T13:00:56.530Z,16.23
2019-05-06T13:03:31.690Z,15.86
2019-05-06T13:06:07.261Z,15.76
2019-05-06T13:08:54.035Z,15.65
2019-05-06T13:11:13.228Z,15.59
2019-05-06T13:13:56.721Z,15.58
2019-05-06T13:16:19.759Z,15.75
2019-05-06T13:18:54.693Z,15.60
2019-05-06T13:21:25.449Z,15.62
2019-05-06T13:24:04.375Z,15.49
2019-05-06T13:26:35.957Z,15.36
2019-05-06T13:29:26.858Z,15.58
2019-05-06T13:32:01.986Z,15.54
2019-05-06T13:34:39.904Z,15.54
2019-05-06T13:37:13.803Z,15.35
2019-05-06T13:39:46.189Z,15.50
2019-05-06T13:42:22.488Z,15.41
2019-05-06T13:44:53.968Z,15.29
2019-05-06T13:47:44.037Z,15.22
2019-05-06T13:50:18.129Z,15.19
2019-05-06T13:53:07.799Z,15.26
2019-05-06T13:55:24.658Z,15.40
2019-05-06T13:57:56.799Z,15.50
2019-05-06T14:00:29.419Z,15.39
2019-05-06T14:03:02.204Z,15.39
2019-05-06T14:05:34.281Z,15.29
2019-05-06T14:08:06.312Z,15.32
2019-05-06T14:10:37.677Z,15.19
2019-05-06T14:13:12.764Z,15.12
2019-05-06T14:15:44.259Z,15.01
2019-05-06T14:18:15.598Z,14.85
2019-05-06T14:20:48.579Z,14.85
2019-05-06T14:23:22.114Z,14.85
2019-05-06T14:26:16.307Z,14.79
2019-05-06T14:28:58.981Z,14.76
2019-05-06T14:31:44.438Z,14.72
2019-05-06T14:34:16.962Z,14.66
2019-05-06T14:36:50.220Z,14.59
2019-05-06T14:39:44.740Z,14.53
2019-05-06T14:42:04.053Z,14.49
2019-05-06T14:44:36.709Z,14.46
2019-05-06T14:47:23.719Z,14.47
2019-05-06T14:49:58.530Z,14.42
2019-05-06T14:52:33.382Z,14.41
2019-05-06T14:55:22.164Z,14.37
2019-05-06T14:57:53.609Z,14.32
2019-05-06T15:00:29.419Z,14.29
2019-05-06T15:03:02.924Z,14.36
2019-05-06T15:05:36.297Z,14.41
2019-05-06T15:08:12.585Z,14.44
2019-05-06T15:10:49.433Z,14.41
2019-05-06T15:13:22.837Z,14.39
2019-05-06T15:15:56.318Z,14.34
2019-05-06T15:18:28.482Z,14.22
2019-05-06T15:21:28.701Z,14.11
2019-05-06T15:23:37.700Z,14.10
2019-05-06T15:26:12.213Z,13.97
2019-05-06T15:28:45.799Z,13.88
2019-05-06T15:31:30.858Z,13.81
2019-05-06T15:34:05.039Z,13.74
2019-05-06T15:36:44.568Z,13.71
2019-05-06T15:39:19.117Z,13.71
2019-05-06T15:41:57.258Z,13.72
2019-05-06T15:44:33.037Z,13.71
2019-05-06T15:47:06.589Z,13.69
2019-05-06T15:49:38.542Z,13.72
2019-05-06T15:52:12.587Z,13.69
2019-05-06T15:54:44.819Z,13.69
2019-05-06T15:57:16.287Z,13.69
2019-05-06T15:59:48.149Z,13.66
2019-05-06T16:02:23.538Z,13.58
2019-05-06T16:04:55.978Z,13.55
2019-05-06T16:07:28.168Z,13.58
2019-05-06T16:09:59.457Z,13.57
2019-05-06T16:12:31.450Z,13.54
2019-05-06T16:15:02.756Z,13.54
2019-05-06T16:17:35.227Z,13.52
2019-05-06T16:20:07.679Z,13.49
2019-05-06T16:22:44.245Z,13.48
2019-05-06T16:25:15.519Z,13.43
2019-05-06T16:27:54.496Z,13.42
2019-05-06T16:30:27.895Z,13.42
2019-05-06T16:33:00.639Z,13.44
2019-05-06T16:35:33.178Z,13.42
2019-05-06T16:38:06.479Z,13.34
2019-05-06T16:40:37.466Z,13.29
2019-05-06T16:43:09.408Z,13.21
2019-05-06T16:45:42.751Z,13.20
2019-05-06T16:48:15.398Z,13.15
2019-05-06T16:50:47.769Z,13.11
2019-05-06T16:53:19.951Z,13.06
2019-05-06T16:55:59.427Z,13.03
2019-05-06T16:58:34.231Z,12.96
2019-05-06T17:01:08.258Z,12.96
2019-05-06T17:04:14.276Z,12.90
2019-05-06T17:06:45.878Z,12.87
2019-05-06T17:09:32.516Z,12.74
2019-05-06T17:12:04.684Z,12.78
2019-05-06T17:14:36.859Z,12.72
2019-05-06T17:17:08.921Z,12.68
2019-05-06T17:19:42.198Z,12.61
2019-05-06T17:22:14.496Z,12.55
2019-05-06T17:24:48.551Z,12.46
2019-05-06T17:27:23.580Z,12.42
2019-05-06T17:30:09.740Z,12.40
2019-05-06T17:32:45.568Z,12.35
2019-05-06T17:35:18.081Z,12.29
2019-05-06T17:38:06.441Z,12.28
2019-05-06T17:40:38.787Z,12.23
2019-05-06T17:43:09.937Z,12.24
2019-05-06T17:45:59.410Z,12.16
2019-05-06T17:48:52.859Z,12.10
2019-05-06T17:51:37.445Z,12.06
2019-05-06T17:54:26.293Z,12.05
2019-05-06T17:57:48.588Z,12.01
2019-05-06T18:00:52.997Z,11.97
2019-05-06T18:03:25.712Z,11.92
2019-05-06T18:06:22.969Z,11.91
2019-05-06T18:09:15.938Z,11.89
2019-05-06T18:11:59.605Z,11.85
2019-05-06T18:14:40.684Z,11.82
2019-05-06T18:17:17.242Z,11.75
2019-05-06T18:19:54.148Z,11.71
2019-05-06T18:22:28.292Z,11.72
2019-05-06T18:25:05.501Z,11.70
2019-05-06T18:27:43.148Z,11.66
2019-05-06T18:30:28.286Z,11.61
2019-05-06T18:32:57.438Z,11.57
2019-05-06T18:35:30.197Z,11.54
2019-05-06T18:38:02.973Z,11.52
2019-05-06T18:40:36.218Z,11.53
2019-05-06T18:43:08.748Z,11.49
2019-05-06T18:45:41.946Z,11.48
2019-05-06T18:48:13.998Z,11.47
2019-05-06T18:50:46.106Z,11.44
2019-05-06T18:53:19.158Z,11.40
2019-05-06T18:55:54.789Z,11.38
2019-05-06T18:58:29.092Z,11.37
2019-05-06T19:01:03.786Z,11.34
2019-05-06T19:04:03.438Z,11.30
2019-05-06T19:06:35.839Z,11.30
2019-05-06T19:09:22.998Z,11.28
2019-05-06T19:11:55.179Z,11.26
2019-05-06T19:14:27.388Z,11.23
2019-05-06T19:16:58.217Z,11.20
2019-05-06T19:19:34.164Z,11.14
2019-05-06T19:22:03.938Z,11.15
2019-05-06T19:24:36.318Z,11.14
2019-05-06T19:27:08.492Z,11.13
2019-05-06T19:29:39.705Z,11.07
2019-05-06T19:32:12.358Z,11.02
2019-05-06T19:34:44.299Z,11.01
2019-05-06T19:37:16.308Z,11.00
2019-05-06T19:39:48.338Z,10.99
2019-05-06T19:42:22.392Z,10.93
2019-05-06T19:44:54.259Z,10.90
2019-05-06T19:47:31.884Z,10.89
2019-05-06T19:50:07.187Z,10.86
2019-05-06T19:52:39.236Z,10.83
2019-05-06T19:55:12.373Z,10.83
2019-05-06T19:57:44.679Z,10.81
2019-05-06T20:00:22.812Z,10.76
2019-05-06T20:02:58.638Z,10.74
2019-05-06T20:05:39.473Z,10.70
2019-05-06T20:08:17.869Z,10.69
2019-05-06T20:11:13.132Z,10.68
2019-05-06T20:13:45.528Z,10.66
2019-05-06T20:16:16.577Z,10.55
2019-05-06T20:18:48.478Z,10.61
2019-05-06T20:21:22.906Z,10.62
2019-05-06T20:23:54.392Z,10.61
2019-05-06T20:26:26.450Z,10.61
2019-05-06T20:28:58.445Z,10.58
2019-05-06T20:31:32.128Z,10.60
2019-05-06T20:34:04.348Z,10.61
2019-05-06T20:36:37.088Z,10.59
2019-05-06T20:39:11.837Z,10.60
2019-05-06T20:41:43.298Z,10.59
2019-05-06T20:44:15.269Z,10.57
2019-05-06T20:46:47.503Z,10.53
2019-05-06T20:49:18.539Z,10.49
2019-05-06T20:51:52.130Z,10.45
2019-05-06T20:54:24.119Z,10.45
2019-05-06T20:56:56.480Z,10.46
2019-05-06T20:59:28.428Z,10.45
2019-05-06T21:02:00.580Z,10.45
2019-05-06T21:04:32.456Z,10.47
2019-05-06T21:07:04.517Z,10.44
2019-05-06T21:09:35.716Z,10.42
2019-05-06T21:12:07.738Z,10.39
2019-05-06T21:14:42.096Z,10.40
2019-05-06T21:17:14.368Z,10.39
2019-05-06T21:19:46.408Z,10.39
2019-05-06T21:22:17.562Z,10.37
2019-05-06T21:24:49.558Z,10.33
2019-05-06T21:27:22.923Z,10.31
2019-05-06T21:29:53.187Z,10.24
2019-05-06T21:32:25.268Z,10.23
2019-05-06T21:34:56.288Z,10.21
2019-05-06T21:37:28.238Z,10.20
2019-05-06T21:40:00.104Z,10.14
2019-05-06T21:42:32.610Z,10.12
2019-05-06T21:45:05.614Z,10.12
2019-05-06T21:47:37.629Z,10.09
2019-05-06T21:50:12.057Z,10.05
2019-05-06T21:52:43.912Z,10.02
2019-05-06T21:55:16.038Z,9.99
2019-05-06T21:57:46.997Z,9.91
2019-05-06T22:00:23.387Z,9.93
2019-05-06T22:02:57.039Z,9.91
2019-05-06T22:05:29.119Z,9.90
2019-05-06T22:08:01.881Z,9.90
2019-05-06T22:10:34.538Z,9.90
2019-05-06T22:13:06.528Z,9.92
2019-05-06T22:15:42.072Z,9.92
2019-05-06T22:18:14.135Z,9.91
2019-05-06T22:21:04.068Z,9.87
2019-05-06T22:23:53.089Z,9.88
2019-05-06T22:26:25.538Z,9.89
2019-05-06T22:28:57.912Z,9.87
2019-05-06T22:31:29.738Z,9.85
2019-05-06T22:34:01.646Z,9.84
2019-05-06T22:36:33.940Z,9.80
2019-05-06T22:39:06.281Z,9.78
2019-05-06T22:41:39.919Z,9.73
2019-05-06T22:44:13.980Z,9.72
2019-05-06T22:46:45.822Z,9.70
2019-05-06T22:49:17.878Z,9.68
2019-05-06T22:51:52.125Z,9.65
2019-05-06T22:54:24.635Z,9.62
2019-05-06T22:56:56.968Z,9.60
2019-05-06T22:59:29.758Z,9.58
2019-05-06T23:02:22.583Z,9.56
2019-05-06T23:04:57.588Z,9.52
2019-05-06T23:07:29.907Z,9.51
2019-05-06T23:10:02.086Z,9.53
2019-05-06T23:12:33.116Z,9.53
2019-05-06T23:15:06.708Z,9.50
2019-05-06T23:17:39.068Z,9.47
2019-05-06T23:20:10.006Z,9.41
2019-05-06T23:22:42.372Z,9.34
2019-05-06T23:25:14.822Z,9.31
2019-05-06T23:27:45.817Z,9.25
2019-05-06T23:30:16.849Z,9.19
2019-05-06T23:32:48.816Z,9.13
2019-05-06T23:35:21.901Z,9.04
2019-05-06T23:38:09.816Z,8.99
2019-05-06T23:40:58.176Z,8.98
2019-05-06T23:43:46.878Z,8.97
2019-05-06T23:46:35.536Z,8.94
2019-05-06T23:49:24.158Z,8.90
2019-05-06T23:52:12.889Z,8.87
2019-05-06T23:55:03.241Z,8.85
2019-05-06T23:57:33.356Z,8.80
